Time;durP1;ratioP1;P1;durP2;ratioP2;P2;SDS_P1;SDS_P2;PMS_P1;PMS_P2;Temp;Humidity;BMP_temperature;BMP_pressure;BME280_temperature;BME280_humidity;BME280_pressure;Samples;Min_cycle;Max_cycle;Signal;HPM_P1;HPM_P2
2022/09/22 00:00:32;;;;;;;1.90;1.50;;;;;;;14.15;48.55;101449.44;5060302;28;20779;-61
2022/09/22 00:03:39;;;;;;;1.67;1.58;;;;;;;14.14;48.79;101439.81;5090753;27;20409;-61
2022/09/22 00:06:10;;;;;;;2.38;1.65;;;;;;;14.16;48.50;101443.13;5078696;28;20404;-61
2022/09/22 00:08:38;;;;;;;2.10;1.25;;;;;;;14.11;48.48;101438.31;5067603;28;20941;-62
2022/09/22 00:11:15;;;;;;;1.70;1.60;;;;;;;14.13;48.38;101439.00;5086932;28;20444;-61
2022/09/22 00:13:47;;;;;;;1.50;1.40;;;;;;;14.11;48.63;101438.31;5084576;28;20422;-61
2022/09/22 00:16:14;;;;;;;1.77;1.63;;;;;;;14.11;48.58;101432.16;5086141;28;20841;-62
2022/09/22 00:19:43;;;;;;;1.98;1.52;;;;;;;14.06;48.85;101440.69;5070357;27;20416;-62
2022/09/22 00:22:08;;;;;;;2.13;1.80;;;;;;;14.08;48.48;101443.16;5063882;28;20404;-61
2022/09/22 00:24:47;;;;;;;1.70;1.60;;;;;;;14.10;48.35;101449.16;5095886;27;20434;-60
2022/09/22 00:27:13;;;;;;;1.80;1.65;;;;;;;14.07;48.60;101444.19;5070403;28;20399;-61
2022/09/22 00:29:38;;;;;;;1.90;1.60;;;;;;;14.04;48.56;101437.34;5066817;28;20762;-60
2022/09/22 00:34:16;;;;;;;2.60;1.70;;;;;;;14.00;48.73;101436.03;5044525;28;20411;-60
2022/09/22 00:36:42;;;;;;;2.25;1.65;;;;;;;13.99;48.89;101434.41;5027017;28;20399;-60
2022/09/22 00:39:07;;;;;;;2.97;1.75;;;;;;;14.01;48.83;101436.88;5026474;28;20388;-60
2022/09/22 00:41:36;;;;;;;1.90;1.60;;;;;;;13.99;48.74;101445.06;5026931;28;20394;-60
2022/09/22 00:46:07;;;;;;;1.70;1.50;;;;;;;13.96;48.64;101440.06;5088720;27;20406;-61
2022/09/22 00:52:21;;;;;;;1.50;1.40;;;;;;;13.97;49.04;101444.38;5094257;27;20412;-60
2022/09/22 00:54:47;;;;;;;1.98;1.52;;;;;;;13.93;49.06;101443.91;5082179;28;20391;-61
2022/09/22 00:57:19;;;;;;;1.85;1.60;;;;;;;13.96;48.91;101443.56;5066828;28;20475;-60
2022/09/22 00:59:48;;;;;;;1.80;1.60;;;;;;;13.92;48.63;101439.59;5080620;28;20380;-60
2022/09/22 01:05:53;;;;;;;1.60;1.50;;;;;;;13.95;49.01;101438.41;5074807;27;20412;-60
2022/09/22 01:08:20;;;;;;;1.83;1.60;;;;;;;13.93;49.06;101443.06;5052610;28;20399;-60
2022/09/22 01:10:47;;;;;;;2.20;1.80;;;;;;;13.88;49.05;101446.28;5066829;28;20479;-60
2022/09/22 01:14:15;;;;;;;1.92;1.52;;;;;;;13.80;49.31;101438.31;5075768;27;2127222;-61
2022/09/22 01:16:51;;;;;;;1.60;1.50;;;;;;;13.78;49.00;101440.31;5113155;28;20403;-62
2022/09/22 01:19:53;;;;;;;1.60;1.50;;;;;;;13.79;49.11;101433.97;5117377;28;20384;-62
2022/09/22 01:22:46;;;;;;;2.00;1.73;;;;;;;13.77;49.35;101436.84;5107037;28;20384;-61
2022/09/22 01:25:17;;;;;;;2.58;1.65;;;;;;;13.80;49.02;101448.16;5121330;28;20983;-61
2022/09/22 01:31:46;;;;;;;2.90;1.70;;;;;;;13.80;49.50;101448.16;5082163;27;20429;-61
2022/09/22 01:35:55;;;;;;;2.55;1.60;;;;;;;13.75;49.40;101449.47;5048326;28;20406;-61
2022/09/22 01:38:37;;;;;;;1.80;1.70;;;;;;;13.73;49.35;101442.66;5034725;28;20494;-61
2022/09/22 01:41:41;;;;;;;2.72;1.70;;;;;;;13.76;49.31;101435.16;5040395;28;20537;-61
2022/09/22 01:47:41;;;;;;;2.85;1.58;;;;;;;13.78;49.18;101445.66;5081942;27;20900;-61
2022/09/22 01:54:11;;;;;;;2.10;1.70;;;;;;;13.74;49.43;101442.50;5075148;27;20404;-61
2022/09/22 01:56:40;;;;;;;1.90;1.70;;;;;;;13.74;49.69;101441.69;5066584;28;20491;-60
2022/09/22 01:59:09;;;;;;;1.73;1.60;;;;;;;13.77;49.43;101446.63;5066516;28;20395;-61
2022/09/22 02:01:50;;;;;;;1.98;1.63;;;;;;;13.79;49.38;101441.13;5066473;28;20833;-61
2022/09/22 02:04:29;;;;;;;1.60;1.50;;;;;;;13.73;49.45;101440.00;5066450;28;20384;-61
2022/09/22 02:07:04;;;;;;;1.60;1.50;;;;;;;13.70;49.72;101446.53;5066575;28;20438;-61
2022/09/22 02:09:32;;;;;;;1.88;1.70;;;;;;;13.75;49.55;101448.66;5066261;28;20396;-61
2022/09/22 02:11:58;;;;;;;3.28;1.88;;;;;;;13.72;49.38;101447.19;5046529;28;20420;-61
2022/09/22 02:14:31;;;;;;;3.72;1.83;;;;;;;13.77;49.55;101451.97;5093100;27;20417;-60
2022/09/22 02:17:13;;;;;;;2.80;1.70;;;;;;;13.80;49.58;101458.81;5079003;28;20461;-62
2022/09/22 02:19:40;;;;;;;1.98;1.55;;;;;;;13.74;49.34;101447.84;5066511;28;20406;-61
2022/09/22 02:22:07;;;;;;;2.13;1.70;;;;;;;13.79;49.38;101452.63;5046964;28;20417;-60
2022/09/22 02:24:36;;;;;;;2.40;1.60;;;;;;;13.80;49.30;101448.16;5046783;28;20385;-60
2022/09/22 02:27:12;;;;;;;1.75;1.48;;;;;;;13.79;49.32;101441.97;5046208;28;20908;-61
2022/09/22 02:30:15;;;;;;;2.17;1.75;;;;;;;13.81;49.39;101439.97;5088407;27;20788;-61
2022/09/22 02:34:01;;;;;;;1.90;1.60;;;;;;;13.81;49.73;101444.47;5082724;27;20430;-61
2022/09/22 02:36:47;;;;;;;1.70;1.60;;;;;;;13.86;49.35;101436.78;5062415;28;20430;-60
2022/09/22 02:39:35;;;;;;;1.70;1.60;;;;;;;13.86;49.54;101436.78;5063782;28;20801;-60
2022/09/22 02:43:50;;;;;;;2.05;1.60;;;;;;;13.82;49.35;101432.81;5069065;27;2065794;-61
2022/09/22 02:46:24;;;;;;;2.10;1.45;;;;;;;13.83;49.36;101439.78;5125500;28;20900;-61
2022/09/22 02:50:16;;;;;;;2.00;1.70;;;;;;;13.77;49.28;101443.97;5086815;27;20410;-61
2022/09/22 02:52:41;;;;;;;3.13;1.70;;;;;;;13.74;49.35;101439.84;5074185;28;20494;-61
2022/09/22 02:55:08;;;;;;;2.42;1.73;;;;;;;13.72;49.45;101444.50;5085949;28;20473;-61
2022/09/22 02:57:34;;;;;;;1.60;1.43;;;;;;;13.73;49.55;101448.00;5086851;28;20394;-61
2022/09/22 03:01:42;;;;;;;2.10;1.90;;;;;;;13.67;49.50;101446.03;5086087;27;20464;-61
2022/09/22 03:04:08;;;;;;;1.93;1.73;;;;;;;13.64;49.55;101446.38;5066021;28;20415;-60
2022/09/22 03:07:25;;;;;;;2.00;1.80;;;;;;;13.60;49.92;101435.22;5071797;28;20408;-60
2022/09/22 03:09:50;;;;;;;1.90;1.63;;;;;;;13.63;49.49;101442.03;5066455;28;20403;-60
2022/09/22 03:12:51;;;;;;;2.40;1.90;;;;;;;13.69;49.83;101449.34;5095269;27;20468;-61
2022/09/22 03:15:17;;;;;;;2.40;1.77;;;;;;;13.64;49.56;101441.03;5083903;28;20401;-61
2022/09/22 03:17:42;;;;;;;4.47;2.10;;;;;;;13.65;49.46;101440.03;5074154;28;20391;-61
2022/09/22 03:20:10;;;;;;;3.28;1.80;;;;;;;13.68;49.40;101435.19;5073934;28;20398;-61
2022/09/22 03:24:33;;;;;;;3.55;1.67;;;;;;;13.61;49.95;101439.53;5075092;28;20986;-60
2022/09/22 03:27:11;;;;;;;3.45;2.00;;;;;;;13.57;49.84;101436.38;5087279;27;20407;-60
2022/09/22 03:29:37;;;;;;;2.00;1.70;;;;;;;13.57;49.66;101435.56;5076375;28;20416;-61
2022/09/22 03:32:02;;;;;;;2.23;1.67;;;;;;;13.59;49.88;101436.22;5084509;28;20397;-61
2022/09/22 03:34:28;;;;;;;2.42;1.90;;;;;;;13.58;50.05;101439.91;5083948;28;20387;-61
2022/09/22 03:39:15;;;;;;;3.03;1.65;;;;;;;13.46;49.87;101439.44;5087325;27;20434;-61
2022/09/22 03:41:40;;;;;;;2.10;1.90;;;;;;;13.46;50.39;101434.09;5086337;28;20788;-61
2022/09/22 03:44:06;;;;;;;2.10;1.60;;;;;;;13.50;50.10;101442.56;5085017;28;20399;-61
2022/09/22 03:48:10;;;;;;;1.90;1.60;;;;;;;13.45;50.17;101442.25;5085836;27;20406;-61
2022/09/22 03:53:23;;;;;;;4.22;1.70;;;;;;;13.46;50.37;101444.75;5079069;27;20407;-61
2022/09/22 03:55:50;;;;;;;2.22;1.73;;;;;;;13.45;50.21;101436.94;5083718;28;20414;-61
2022/09/22 03:58:18;;;;;;;2.10;1.70;;;;;;;13.42;50.32;101445.28;5067007;28;20404;-61
2022/09/22 04:00:44;;;;;;;2.20;1.80;;;;;;;13.44;50.27;101445.94;5059607;28;20479;-62
2022/09/22 04:03:11;;;;;;;1.70;1.60;;;;;;;13.37;50.07;101445.78;5060852;28;20514;-61
2022/09/22 04:05:36;;;;;;;1.90;1.60;;;;;;;13.35;50.26;101442.47;5066516;28;20446;-61
2022/09/22 04:08:02;;;;;;;3.93;2.00;;;;;;;13.38;50.13;101453.59;5073347;28;20392;-63
2022/09/22 04:10:27;;;;;;;1.90;1.80;;;;;;;13.38;50.11;101455.44;5066737;28;20536;-61
2022/09/22 04:13:42;;;;;;;2.60;1.90;;;;;;;13.35;50.27;101450.44;5076829;27;20404;-60
2022/09/22 04:16:07;;;;;;;4.35;2.17;;;;;;;13.33;50.29;101452.47;5081666;28;20458;-61
2022/09/22 04:18:35;;;;;;;2.40;2.00;;;;;;;13.32;50.27;101453.44;5086591;28;20918;-62
2022/09/22 04:21:01;;;;;;;2.03;1.80;;;;;;;13.31;50.14;101449.97;5081987;28;20396;-61
2022/09/22 04:23:26;;;;;;;2.40;2.20;;;;;;;13.32;50.01;101456.94;5083074;28;20904;-61
2022/09/22 04:25:52;;;;;;;4.40;2.10;;;;;;;13.32;50.32;101450.78;5084552;28;20401;-61
2022/09/22 04:28:18;;;;;;;2.40;2.20;;;;;;;13.37;50.00;101453.78;5084903;28;20394;-60
2022/09/22 04:30:43;;;;;;;2.37;2.00;;;;;;;13.39;50.25;101457.09;5078247;28;20398;-60
2022/09/22 04:33:10;;;;;;;2.00;1.80;;;;;;;13.41;50.13;101457.75;5085598;28;20441;-60
2022/09/22 04:35:35;;;;;;;2.47;1.80;;;;;;;13.40;50.08;101456.09;5082665;28;20394;-61
2022/09/22 04:38:01;;;;;;;2.35;2.00;;;;;;;13.55;49.94;101459.69;5080727;28;20393;-62
2022/09/22 04:40:26;;;;;;;4.13;1.77;;;;;;;13.74;49.26;101461.16;5077237;28;20814;-61
2022/09/22 04:42:52;;;;;;;2.53;2.07;;;;;;;14.00;48.89;101453.88;5081687;28;20388;-61
2022/09/22 04:45:17;;;;;;;3.30;1.97;;;;;;;14.25;48.40;101451.91;5084134;28;20394;-61
2022/09/22 04:47:44;;;;;;;2.17;1.97;;;;;;;14.54;47.52;101461.88;5083930;28;20744;-61
2022/09/22 04:50:11;;;;;;;2.67;1.90;;;;;;;14.66;47.21;101452.50;5085033;28;20856;-61
2022/09/22 04:52:36;;;;;;;2.07;1.90;;;;;;;14.87;46.80;101454.50;5080698;28;20405;-60
2022/09/22 04:55:03;;;;;;;2.30;1.90;;;;;;;15.06;46.28;101466.50;5082478;28;20464;-61
2022/09/22 04:57:28;;;;;;;1.97;1.77;;;;;;;15.21;45.84;101461.16;5085355;28;20449;-61
2022/09/22 04:59:54;;;;;;;2.33;1.70;;;;;;;15.37;45.63;101457.50;5084285;28;20542;-61
2022/09/22 05:02:19;;;;;;;1.95;1.85;;;;;;;15.59;45.08;101454.94;5084694;28;20485;-61
2022/09/22 05:04:45;;;;;;;2.10;1.90;;;;;;;15.72;44.85;101449.78;5085299;28;20420;-61
2022/09/22 05:07:10;;;;;;;3.20;2.08;;;;;;;16.00;44.30;101449.09;5085170;28;20390;-62
2022/09/22 05:09:36;;;;;;;2.00;1.80;;;;;;;16.15;43.91;101457.09;5084776;28;20761;-61
2022/09/22 05:12:01;;;;;;;2.50;2.13;;;;;;;16.29;43.48;101458.06;5084486;28;20465;-61
2022/09/22 05:14:28;;;;;;;3.57;1.90;;;;;;;16.56;43.13;101459.16;5084345;28;20398;-62
2022/09/22 05:16:54;;;;;;;2.10;1.90;;;;;;;16.80;42.59;101450.75;5084654;28;20910;-61
2022/09/22 05:19:20;;;;;;;2.60;1.88;;;;;;;17.06;42.21;101451.19;5084858;28;20387;-61
2022/09/22 05:21:45;;;;;;;4.70;1.98;;;;;;;17.35;41.57;101450.97;5083491;28;20393;-61
2022/09/22 05:24:11;;;;;;;2.60;2.00;;;;;;;17.70;40.79;101460.84;5075875;28;20409;-60
2022/09/22 05:26:36;;;;;;;3.53;2.00;;;;;;;17.98;40.25;101460.78;5071076;28;20402;-60
2022/09/22 05:29:01;;;;;;;3.30;1.90;;;;;;;18.17;39.76;101448.47;5070605;28;20391;-60
2022/09/22 05:31:27;;;;;;;3.43;2.00;;;;;;;18.41;39.33;101454.31;5071156;28;20481;-59
2022/09/22 05:33:52;;;;;;;2.67;2.20;;;;;;;18.68;38.64;101452.47;5071122;28;20486;-59
2022/09/22 05:36:18;;;;;;;5.60;2.50;;;;;;;18.90;38.47;101451.25;5070669;28;20387;-60
2022/09/22 05:38:43;;;;;;;8.55;2.15;;;;;;;19.07;38.11;101450.88;5069478;28;20477;-61
2022/09/22 05:41:09;;;;;;;7.10;2.20;;;;;;;19.33;37.80;101446.47;5067736;28;20391;-60
2022/09/22 05:43:34;;;;;;;9.83;2.10;;;;;;;19.65;36.98;101448.22;5070541;28;20426;-60
2022/09/22 05:46:00;;;;;;;5.28;2.30;;;;;;;19.93;36.57;101443.59;5069922;28;20395;-60
2022/09/22 05:48:25;;;;;;;8.47;2.40;;;;;;;20.26;36.14;101448.81;5069556;28;20391;-60
2022/09/22 05:50:51;;;;;;;9.45;2.30;;;;;;;20.52;35.72;101450.50;5069729;28;20398;-60
2022/09/22 05:53:17;;;;;;;8.87;2.50;;;;;;;20.73;35.30;101443.94;5069680;28;20788;-60
2022/09/22 05:55:42;;;;;;;8.40;2.85;;;;;;;21.09;34.74;101444.28;5069929;28;20438;-60
2022/09/22 05:58:11;;;;;;;4.87;2.57;;;;;;;21.43;34.41;101442.88;5064855;28;20835;-59
2022/09/22 06:00:38;;;;;;;4.07;2.78;;;;;;;21.89;33.65;101444.22;5054175;28;20397;-60
2022/09/22 06:03:04;;;;;;;5.82;3.20;;;;;;;22.27;33.07;101432.31;5052050;28;20970;-60
2022/09/22 06:05:29;;;;;;;5.70;2.45;;;;;;;22.58;32.36;101437.66;5053859;28;20396;-60
2022/09/22 06:08:02;;;;;;;3.30;2.50;;;;;;;22.90;32.05;101435.44;5055404;28;20418;-60
2022/09/22 06:10:32;;;;;;;4.50;2.40;;;;;;;23.24;31.41;101441.13;5055170;28;20391;-61
2022/09/22 06:13:05;;;;;;;3.00;2.70;;;;;;;23.60;31.00;101437.28;5053193;28;20482;-60
2022/09/22 06:15:34;;;;;;;5.45;2.40;;;;;;;23.87;30.34;101436.75;5062508;28;20391;-60
2022/09/22 06:18:00;;;;;;;4.00;2.83;;;;;;;24.47;29.30;101435.41;5070261;28;20399;-60
2022/09/22 06:20:25;;;;;;;8.52;3.55;;;;;;;25.30;28.20;101437.50;5069607;28;20402;-60
2022/09/22 06:23:45;;;;;;;5.82;3.40;;;;;;;26.99;26.02;101425.63;5062655;27;20406;-60
2022/09/22 06:26:10;;;;;;;4.73;2.33;;;;;;;27.95;24.41;101429.06;5074316;28;20402;-60
2022/09/22 06:28:36;;;;;;;3.25;2.20;;;;;;;28.68;23.46;101428.00;5065754;28;20905;-60
2022/09/22 06:31:01;;;;;;;2.80;1.95;;;;;;;29.10;22.82;101426.00;5052950;28;20388;-60
2022/09/22 06:33:28;;;;;;;3.10;2.03;;;;;;;29.63;21.87;101423.66;5060335;28;20479;-61
2022/09/22 06:35:53;;;;;;;2.45;2.25;;;;;;;29.65;22.00;101426.13;5062280;28;20380;-60
2022/09/22 06:39:23;;;;;;;4.05;2.10;;;;;;;30.08;21.82;101426.41;5046650;28;20463;-61
2022/09/22 06:41:49;;;;;;;2.87;1.80;;;;;;;30.98;20.49;101413.34;5043312;28;20408;-60
2022/09/22 06:44:14;;;;;;;2.90;2.00;;;;;;;31.90;19.35;101414.91;5042739;28;20914;-61
2022/09/22 06:46:40;;;;;;;2.60;1.88;;;;;;;32.53;19.02;101416.38;5044682;28;20392;-61
2022/09/22 06:49:06;;;;;;;2.55;2.20;;;;;;;32.72;18.50;101413.59;5043032;28;20412;-60
2022/09/22 06:51:34;;;;;;;2.88;2.03;;;;;;;32.70;18.69;101404.88;5044533;28;20405;-60
2022/09/22 06:54:04;;;;;;;3.25;2.00;;;;;;;31.99;19.42;101413.13;5043580;28;20488;-61
2022/09/22 06:56:41;;;;;;;6.65;3.30;;;;;;;30.81;20.62;101409.13;5037932;28;20392;-61
2022/09/22 06:59:12;;;;;;;2.50;2.10;;;;;;;29.47;21.96;101408.44;5044301;28;20413;-61
2022/09/22 07:01:41;;;;;;;4.10;2.10;;;;;;;28.59;22.84;101411.41;5045435;28;20394;-61
2022/09/22 07:04:07;;;;;;;2.65;1.90;;;;;;;28.01;23.44;101416.25;5043382;28;20744;-61
2022/09/22 07:06:34;;;;;;;2.80;2.00;;;;;;;27.48;23.61;101412.81;5042844;28;20875;-61
2022/09/22 07:09:00;;;;;;;3.80;1.90;;;;;;;27.00;24.07;101407.41;5043060;28;20382;-60
2022/09/22 07:11:25;;;;;;;2.97;2.25;;;;;;;26.73;24.42;101408.31;5039742;28;20387;-61
2022/09/22 07:13:52;;;;;;;2.10;1.90;;;;;;;26.64;24.85;101410.69;5044065;28;20433;-61
2022/09/22 07:16:20;;;;;;;2.47;2.20;;;;;;;26.40;24.87;101404.78;5040260;28;21007;-60
2022/09/22 07:18:48;;;;;;;2.67;2.38;;;;;;;26.17;25.44;101405.13;5037274;28;20414;-61
2022/09/22 07:21:19;;;;;;;4.50;2.17;;;;;;;26.07;25.10;101406.66;5041112;28;20447;-60
2022/09/22 07:23:48;;;;;;;2.88;2.20;;;;;;;25.98;25.52;101412.81;5040130;28;20393;-61
2022/09/22 07:26:16;;;;;;;3.28;2.38;;;;;;;25.78;25.66;101395.19;5042943;28;20767;-60
2022/09/22 07:28:45;;;;;;;3.53;2.40;;;;;;;25.47;26.19;101405.72;5041406;28;20382;-61
2022/09/22 07:31:13;;;;;;;3.60;2.00;;;;;;;25.43;26.06;101406.47;5037313;28;20390;-63
2022/09/22 07:33:41;;;;;;;5.25;1.98;;;;;;;25.27;26.18;101403.56;5038173;28;20378;-62
2022/09/22 07:36:18;;;;;;;2.63;1.67;;;;;;;25.19;26.21;101395.81;5023576;28;20442;-60
2022/09/22 07:38:48;;;;;;;2.92;2.08;;;;;;;25.06;26.34;101399.72;5043142;28;20431;-61
2022/09/22 07:41:19;;;;;;;2.47;1.97;;;;;;;25.03;26.61;101411.09;5044057;28;20392;-60
2022/09/22 07:43:50;;;;;;;3.40;2.40;;;;;;;24.97;26.60;101407.50;5043879;28;20378;-60
2022/09/22 07:46:15;;;;;;;2.60;2.10;;;;;;;24.83;26.69;101403.47;5045115;28;20422;-60
2022/09/22 07:48:44;;;;;;;2.23;1.93;;;;;;;24.71;27.06;101410.88;5042006;28;20436;-60
2022/09/22 07:51:18;;;;;;;2.83;1.70;;;;;;;24.56;26.86;101414.16;5031747;28;20784;-60
2022/09/22 07:53:46;;;;;;;2.60;1.60;;;;;;;24.60;27.12;101409.91;5048618;28;20401;-61
2022/09/22 07:56:14;;;;;;;4.22;1.70;;;;;;;24.50;26.96;101415.13;5048358;28;20391;-60
2022/09/22 07:58:46;;;;;;;3.28;1.90;;;;;;;24.11;27.26;101406.84;5047612;28;20412;-61
2022/09/22 08:01:12;;;;;;;2.77;1.87;;;;;;;23.84;27.85;101421.84;5044804;28;20890;-60
2022/09/22 08:03:38;;;;;;;2.47;1.80;;;;;;;23.91;27.73;101418.97;5037010;28;20390;-60
2022/09/22 08:06:10;;;;;;;4.80;2.10;;;;;;;23.94;27.63;101414.97;5034027;28;20382;-60
2022/09/22 08:08:43;;;;;;;2.92;1.90;;;;;;;23.59;28.21;101405.06;5037596;28;20394;-60
2022/09/22 08:11:14;;;;;;;2.38;1.75;;;;;;;23.44;28.39;101403.69;5032381;28;20382;-61
2022/09/22 08:13:48;;;;;;;3.47;2.00;;;;;;;23.75;28.32;101404.31;5033007;28;20375;-61
2022/09/22 08:16:17;;;;;;;3.10;2.15;;;;;;;23.67;28.30;101408.19;5028581;28;20397;-61
2022/09/22 08:18:43;;;;;;;3.80;1.88;;;;;;;23.73;28.29;101400.19;5033054;28;20414;-61
2022/09/22 08:21:09;;;;;;;1.88;1.73;;;;;;;23.46;28.46;101400.72;5034250;28;20405;-60
2022/09/22 08:23:36;;;;;;;2.85;1.77;;;;;;;23.28;28.65;101396.28;5039005;28;20752;-60
2022/09/22 08:26:07;;;;;;;3.13;1.80;;;;;;;23.43;28.30;101393.91;5030699;28;20435;-61
2022/09/22 08:28:33;;;;;;;2.15;1.70;;;;;;;23.55;28.45;101393.06;5034957;28;20705;-61
2022/09/22 08:30:59;;;;;;;2.58;1.50;;;;;;;23.37;28.57;101394.88;5035508;28;20872;-61
2022/09/22 08:33:25;;;;;;;1.30;1.20;;;;;;;23.12;28.65;101395.16;5036880;28;20417;-60
2022/09/22 08:35:56;;;;;;;1.90;1.70;;;;;;;23.09;28.43;101385.63;5031704;28;20694;-61
2022/09/22 08:38:22;;;;;;;3.50;1.40;;;;;;;23.15;28.69;101383.03;5023278;28;20505;-62
2022/09/22 08:41:02;;;;;;;2.97;2.30;;;;;;;23.23;28.58;101386.19;5027091;28;20556;-61
2022/09/22 08:43:30;;;;;;;2.47;1.85;;;;;;;23.07;28.73;101376.13;5024655;28;20994;-61
2022/09/22 08:45:57;;;;;;;1.33;1.20;;;;;;;23.08;28.69;101367.78;5029376;28;20398;-61
2022/09/22 08:54:05;;;;;;;2.70;1.90;;;;;;;23.05;29.16;101375.53;5029819;28;20389;-62
2022/09/22 08:56:40;;;;;;;6.13;2.90;;;;;;;23.13;29.85;101372.44;5034104;28;20387;-62
2022/09/22 08:59:21;;;;;;;4.70;1.85;;;;;;;23.29;29.63;101358.19;5030438;28;20557;-64
2022/09/22 09:02:18;;;;;;;3.30;1.60;;;;;;;23.25;29.41;101361.63;5030794;28;20406;-63
2022/09/22 09:05:02;;;;;;;3.00;1.88;;;;;;;23.32;28.89;101348.78;5025604;28;20386;-63
2022/09/22 09:07:42;;;;;;;3.53;1.25;;;;;;;23.11;28.61;101347.53;5028889;28;20402;-63
2022/09/22 09:10:31;;;;;;;4.85;3.50;;;;;;;23.10;29.09;101351.28;5030202;28;20469;-62
2022/09/22 09:13:15;;;;;;;3.00;1.50;;;;;;;23.23;29.13;101340.22;5021866;28;20402;-62
2022/09/22 09:15:46;;;;;;;5.87;1.80;;;;;;;23.33;28.95;101353.13;5022221;28;20477;-63
2022/09/22 09:18:16;;;;;;;2.45;1.30;;;;;;;23.40;29.07;101358.41;5030137;28;20458;-62
2022/09/22 09:20:45;;;;;;;2.67;1.35;;;;;;;23.19;28.90;101355.28;5035877;28;20437;-62
2022/09/22 09:23:28;;;;;;;3.53;1.40;;;;;;;23.09;29.07;101344.25;5033364;28;20473;-63
2022/09/22 09:25:55;;;;;;;4.68;1.67;;;;;;;22.95;29.18;101335.53;5032074;28;20428;-64
2022/09/22 09:28:30;;;;;;;2.72;1.10;;;;;;;22.92;28.95;101336.00;5030305;28;20393;-63
2022/09/22 09:31:07;;;;;;;2.20;1.02;;;;;;;22.95;29.00;101330.13;5030504;28;20403;-64
2022/09/22 09:33:51;;;;;;;2.08;0.90;;;;;;;22.92;29.07;101327.88;5030088;28;20397;-63
2022/09/22 09:36:21;;;;;;;1.77;1.05;;;;;;;22.83;28.70;101330.16;5033030;28;20444;-63
2022/09/22 09:38:53;;;;;;;1.30;1.20;;;;;;;22.63;28.52;101332.38;5033820;28;20425;-64
2022/09/22 09:41:31;;;;;;;1.75;1.30;;;;;;;22.49;28.51;101329.09;5027628;28;20437;-63
2022/09/22 09:44:01;;;;;;;1.30;1.02;;;;;;;22.31;28.91;101333.56;5030997;28;20497;-63
2022/09/22 09:46:35;;;;;;;1.85;1.15;;;;;;;22.35;28.49;101327.69;5032798;28;20513;-63
2022/09/22 09:49:13;;;;;;;2.90;0.90;;;;;;;22.35;28.28;101330.41;5025251;28;20394;-63
2022/09/22 09:51:43;;;;;;;1.73;0.90;;;;;;;22.47;27.76;101326.66;5030117;28;20915;-64
2022/09/22 09:54:13;;;;;;;1.07;0.80;;;;;;;22.57;27.59;101326.03;5028950;28;20394;-63
2022/09/22 09:57:10;;;;;;;1.83;0.80;;;;;;;22.49;27.36;101326.38;5029536;28;20409;-63
2022/09/22 10:02:37;;;;;;;2.20;0.80;;;;;;;22.15;27.13;101326.09;5031904;28;20390;-64
2022/09/22 10:05:16;;;;;;;0.80;0.80;;;;;;;22.26;26.95;101329.88;5033197;28;20447;-64
2022/09/22 10:07:44;;;;;;;3.95;1.00;;;;;;;22.31;26.92;101330.03;5034269;28;20911;-64
2022/09/22 10:10:28;;;;;;;2.40;0.88;;;;;;;22.41;27.12;101324.03;5030359;28;20394;-64
2022/09/22 10:13:23;;;;;;;2.90;0.90;;;;;;;22.19;26.86;101331.88;5032761;28;20457;-63
2022/09/22 10:16:19;;;;;;;0.60;0.60;;;;;;;22.14;26.92;101316.34;5029793;28;20464;-63
2022/09/22 10:18:46;;;;;;;2.22;0.80;;;;;;;22.23;27.14;101327.63;5028838;28;20920;-63
2022/09/22 10:21:22;;;;;;;3.63;0.90;;;;;;;22.49;26.81;101323.69;5029639;28;20946;-64
2022/09/22 10:24:32;;;;;;;1.35;0.70;;;;;;;22.63;26.36;101314.28;5095929;27;20459;-63
2022/09/22 10:26:58;;;;;;;2.05;0.70;;;;;;;22.69;26.20;101321.47;5071151;28;20407;-63
2022/09/22 10:29:24;;;;;;;0.65;0.60;;;;;;;22.75;25.77;101319.69;5078120;28;20396;-63
2022/09/22 10:32:15;;;;;;;0.73;0.60;;;;;;;22.90;26.08;101311.09;5066616;28;20388;-63
2022/09/22 10:34:49;;;;;;;2.95;1.35;;;;;;;23.05;25.78;101321.47;5085266;28;20824;-64
2022/09/22 10:37:23;;;;;;;1.85;1.08;;;;;;;23.05;25.91;101318.75;5066059;28;20808;-63
2022/09/22 10:39:51;;;;;;;1.50;1.02;;;;;;;22.98;26.04;101320.75;5066379;28;20388;-63
2022/09/22 10:43:24;;;;;;;1.20;0.80;;;;;;;22.95;25.53;101311.19;5097501;27;20457;-64
2022/09/22 10:46:19;;;;;;;2.07;0.70;;;;;;;23.02;25.61;101319.19;5084618;28;20395;-64
2022/09/22 10:48:49;;;;;;;1.15;0.80;;;;;;;23.06;26.21;101317.69;5087419;28;20400;-63
2022/09/22 10:51:56;;;;;;;1.70;1.37;;;;;;;23.05;27.19;101316.03;5079786;28;20392;-64
2022/09/22 10:54:40;;;;;;;3.87;1.53;;;;;;;22.90;27.82;101302.97;5070871;28;20455;-64
2022/09/22 10:57:29;;;;;;;1.75;1.40;;;;;;;22.77;28.48;101311.34;5084379;28;20401;-64
2022/09/22 11:00:16;;;;;;;4.70;1.20;;;;;;;22.84;28.51;101306.66;5081809;28;20392;-63
2022/09/22 11:02:50;;;;;;;1.70;1.33;;;;;;;22.75;28.50;101311.59;5090128;28;20413;-64
2022/09/22 11:14:42;;;;;;;1.60;1.08;;;;;;;22.77;28.25;101300.53;5086060;28;20461;-66
2022/09/22 11:17:40;;;;;;;3.17;1.00;;;;;;;22.78;28.20;101294.91;5092389;28;20416;-63
2022/09/22 11:20:09;;;;;;;1.45;1.20;;;;;;;22.85;28.37;101295.59;5082953;28;20407;-65
2022/09/22 11:22:50;;;;;;;1.95;0.98;;;;;;;22.94;28.00;101301.47;5084425;28;20406;-63
2022/09/22 11:25:38;;;;;;;1.20;1.10;;;;;;;22.99;27.75;101292.63;5093405;28;20403;-64
2022/09/22 11:28:03;;;;;;;1.92;1.35;;;;;;;23.07;27.58;101298.50;5090905;28;20516;-63
2022/09/22 11:30:51;;;;;;;1.70;1.07;;;;;;;23.02;27.55;101287.56;5082369;28;20476;-63
2022/09/22 11:33:26;;;;;;;1.60;1.02;;;;;;;23.09;27.28;101293.69;5093300;28;20389;-64
2022/09/22 11:36:36;;;;;;;2.17;1.00;;;;;;;23.14;26.96;101286.72;5085570;28;20394;-63
2022/09/22 11:39:11;;;;;;;1.00;0.80;;;;;;;23.26;26.59;101282.94;5031061;28;20407;-63
2022/09/22 11:43:20;;;;;;;1.77;1.10;;;;;;;23.16;26.73;101282.75;5047104;28;20459;-62
2022/09/22 11:45:57;;;;;;;2.67;1.20;;;;;;;23.16;27.61;101290.03;5042494;28;20791;-61
2022/09/22 11:48:23;;;;;;;1.25;1.15;;;;;;;23.25;27.52;101285.88;5046344;28;20417;-61
2022/09/22 11:51:09;;;;;;;1.57;1.00;;;;;;;23.32;27.36;101280.31;5043981;28;20903;-62
2022/09/22 11:53:34;;;;;;;1.65;1.00;;;;;;;23.32;27.96;101275.75;5037973;28;20402;-61
2022/09/22 11:56:19;;;;;;;1.60;0.90;;;;;;;23.39;27.67;101289.94;5043237;28;20384;-61
2022/09/22 11:58:46;;;;;;;1.80;1.10;;;;;;;23.35;27.52;101280.66;5043398;28;20425;-61
2022/09/22 12:01:22;;;;;;;1.20;0.80;;;;;;;23.28;27.41;101283.53;5044864;28;20433;-61
2022/09/22 12:04:23;;;;;;;4.80;1.60;;;;;;;23.25;27.95;101270.47;5044514;28;20459;-61
2022/09/22 12:06:54;;;;;;;1.90;1.10;;;;;;;23.36;27.59;101281.50;5012678;28;20484;-61
2022/09/22 12:09:34;;;;;;;3.08;1.00;;;;;;;23.28;27.33;101286.22;5028390;28;20403;-61
2022/09/22 12:12:01;;;;;;;1.88;0.95;;;;;;;23.22;26.88;101289.06;5036548;28;20435;-61
2022/09/22 12:14:28;;;;;;;2.17;1.08;;;;;;;23.13;27.17;101280.50;5026263;28;20812;-62
2022/09/22 12:17:13;;;;;;;2.50;1.20;;;;;;;23.13;26.91;101280.50;5037569;28;20378;-62
2022/09/22 12:19:52;;;;;;;1.27;0.90;;;;;;;23.13;26.81;101274.28;5033125;28;20820;-63
2022/09/22 12:22:24;;;;;;;2.10;1.20;;;;;;;23.18;26.37;101268.97;5043722;28;20417;-62
2022/09/22 12:24:50;;;;;;;1.30;1.20;;;;;;;23.18;25.96;101264.38;5045888;28;20397;-62
2022/09/22 12:27:22;;;;;;;3.80;0.90;;;;;;;23.21;26.01;101257.66;5035656;28;20474;-62
2022/09/22 12:30:06;;;;;;;1.30;1.20;;;;;;;23.21;25.82;101252.25;5043640;28;20485;-61
2022/09/22 12:32:40;;;;;;;2.15;1.50;;;;;;;23.23;26.29;101258.25;5045001;28;20374;-62
2022/09/22 12:35:07;;;;;;;2.42;2.22;;;;;;;23.27;26.43;101252.13;5045052;28;20471;-61
2022/09/22 12:37:37;;;;;;;2.53;1.80;;;;;;;23.22;27.06;101262.81;5042257;28;20398;-62
2022/09/22 12:40:22;;;;;;;2.28;1.70;;;;;;;23.25;26.98;101258.84;5046025;28;20475;-61
2022/09/22 12:42:52;;;;;;;2.67;1.70;;;;;;;23.26;27.16;101253.19;5060231;28;20419;-62
2022/09/22 12:45:32;;;;;;;2.08;1.80;;;;;;;23.25;27.60;101254.25;5060524;28;20920;-61
2022/09/22 12:48:00;;;;;;;2.87;1.77;;;;;;;23.29;27.43;101251.88;5053763;28;20394;-61
2022/09/22 12:50:44;;;;;;;2.13;1.60;;;;;;;23.34;27.27;101251.16;5057863;28;20402;-61